createdAt,value
2019-03-24T00:00:51.175Z,0
2019-03-24T00:03:57.136Z,0
2019-03-24T00:07:03.001Z,0
2019-03-24T00:10:08.951Z,0
2019-03-24T00:13:14.961Z,0
2019-03-24T00:16:20.832Z,0
2019-03-24T00:19:26.880Z,0
2019-03-24T00:22:32.750Z,0
2019-03-24T00:25:41.627Z,0
2019-03-24T00:28:47.576Z,0
2019-03-24T00:31:53.449Z,0
2019-03-24T00:34:59.399Z,0
2019-03-24T00:38:05.363Z,0
2019-03-24T00:41:11.407Z,0
2019-03-24T00:44:17.380Z,0
2019-03-24T00:47:23.258Z,0
2019-03-24T00:50:29.191Z,0
2019-03-24T00:53:35.151Z,0
2019-03-24T00:56:41.028Z,0
2019-03-24T00:59:46.969Z,0
2019-03-24T01:02:52.920Z,0
2019-03-24T01:05:58.890Z,0
2019-03-24T01:09:07.411Z,0
2019-03-24T01:12:13.321Z,0
2019-03-24T01:15:19.329Z,0
2019-03-24T01:18:25.323Z,0
2019-03-24T01:21:31.263Z,0
2019-03-24T01:24:37.139Z,0
2019-03-24T01:27:43.179Z,0
2019-03-24T01:30:49.050Z,0
2019-03-24T01:33:54.986Z,0
2019-03-24T01:37:00.969Z,0
2019-03-24T01:40:06.828Z,0
2019-03-24T01:43:12.871Z,0
2019-03-24T01:46:18.835Z,0
2019-03-24T01:49:24.843Z,0
2019-03-24T01:52:30.863Z,0
2019-03-24T01:55:36.795Z,0
2019-03-24T01:58:42.785Z,0
2019-03-24T02:01:48.683Z,0
2019-03-24T02:04:54.744Z,0
2019-03-24T02:08:00.652Z,0
2019-03-24T02:11:06.621Z,0
2019-03-24T02:14:12.583Z,0
2019-03-24T02:17:21.340Z,0
2019-03-24T02:20:27.266Z,0
2019-03-24T02:23:33.226Z,0
2019-03-24T02:26:39.177Z,0
2019-03-24T02:29:45.145Z,0
2019-03-24T02:32:51.212Z,0
2019-03-24T02:35:57.163Z,0
2019-03-24T02:39:03.202Z,0
2019-03-24T02:42:09.180Z,0
2019-03-24T02:45:15.146Z,0
2019-03-24T02:48:21.104Z,0
2019-03-24T02:51:27.065Z,0
2019-03-24T02:54:33.054Z,0
2019-03-24T02:57:38.993Z,0
2019-03-24T03:00:47.585Z,0
2019-03-24T03:03:53.532Z,0
2019-03-24T03:06:59.521Z,0
2019-03-24T03:10:05.413Z,0
2019-03-24T03:13:11.485Z,0
2019-03-24T03:16:17.505Z,0
2019-03-24T03:19:23.461Z,0
2019-03-24T03:22:29.526Z,0
2019-03-24T03:25:35.528Z,0
2019-03-24T03:28:41.549Z,0
2019-03-24T03:31:47.622Z,0
2019-03-24T03:34:53.791Z,0
2019-03-24T03:37:59.736Z,0
2019-03-24T03:41:06.035Z,0
2019-03-24T03:44:12.026Z,0
2019-03-24T03:47:18.003Z,0
2019-03-24T03:50:24.070Z,0
2019-03-24T03:53:29.946Z,0
2019-03-24T03:56:35.989Z,0
2019-03-24T03:59:41.970Z,0
2019-03-24T04:02:48.161Z,0
2019-03-24T04:05:54.038Z,0.1
2019-03-24T04:09:00.054Z,0.2
2019-03-24T04:12:06.169Z,0.3
2019-03-24T04:15:12.062Z,0.4
2019-03-24T04:18:18.150Z,0.6
2019-03-24T04:21:24.098Z,0.8
2019-03-24T04:24:30.188Z,1.1
2019-03-24T04:27:36.257Z,1.5
2019-03-24T04:30:42.214Z,2
2019-03-24T04:33:48.374Z,2.7
2019-03-24T04:36:54.417Z,3.8
2019-03-24T04:40:00.412Z,5.5
2019-03-24T04:43:06.444Z,8.3
2019-03-24T04:46:12.433Z,13
2019-03-24T04:49:21.003Z,16.8
2019-03-24T04:52:26.979Z,19.4
2019-03-24T04:55:36.019Z,21.9
2019-03-24T04:58:41.834Z,24.1
2019-03-24T05:01:47.829Z,28.1
2019-03-24T05:04:53.792Z,36.7
2019-03-24T05:07:59.669Z,46.8
2019-03-24T05:11:05.612Z,58
2019-03-24T05:14:11.566Z,68
2019-03-24T05:17:28.184Z,77.8
2019-03-24T05:20:34.139Z,87.5
2019-03-24T05:23:40.150Z,92.2
2019-03-24T05:26:46.163Z,87.1
2019-03-24T05:29:52.124Z,78.8
2019-03-24T05:32:58.077Z,83.2
2019-03-24T05:36:04.042Z,94.3
2019-03-24T05:39:09.997Z,100.1
2019-03-24T05:42:16.052Z,92.9
2019-03-24T05:45:21.915Z,91.8
2019-03-24T05:48:27.877Z,91.4
2019-03-24T05:51:33.836Z,89.3
2019-03-24T05:54:39.797Z,81.7
2019-03-24T05:57:45.756Z,77.8
2019-03-24T06:00:51.702Z,76.7
2019-03-24T06:03:57.679Z,77.8
2019-03-24T06:07:03.640Z,79.2
2019-03-24T06:10:09.610Z,80.6
2019-03-24T06:13:15.550Z,81.4
2019-03-24T06:16:21.513Z,82.1
2019-03-24T06:19:27.480Z,82.4
2019-03-24T06:22:33.439Z,82.8
2019-03-24T06:25:39.395Z,82.1
2019-03-24T06:28:45.275Z,80.6
2019-03-24T06:31:51.210Z,79.2
2019-03-24T06:34:57.172Z,78.1
2019-03-24T06:38:03.141Z,77
2019-03-24T06:41:09.113Z,74.5
2019-03-24T06:44:17.843Z,71.6
2019-03-24T06:47:23.776Z,69.5
2019-03-24T06:50:29.656Z,67
2019-03-24T06:53:35.593Z,65.5
2019-03-24T06:56:41.493Z,64.1
2019-03-24T06:59:47.464Z,63.7
2019-03-24T07:02:53.345Z,63.7
2019-03-24T07:05:59.441Z,63.4
2019-03-24T07:09:05.316Z,63
2019-03-24T07:12:11.259Z,62.6
2019-03-24T07:15:19.738Z,62.3
2019-03-24T07:18:25.738Z,61.6
2019-03-24T07:21:31.697Z,60.8
2019-03-24T07:24:37.655Z,60.1
2019-03-24T07:27:43.594Z,58.7
2019-03-24T07:30:49.574Z,57.6
2019-03-24T07:33:55.533Z,56.9
2019-03-24T07:37:01.494Z,55.8
2019-03-24T07:40:07.459Z,54.7
2019-03-24T07:43:13.413Z,53.6
2019-03-24T07:46:19.375Z,52.6
2019-03-24T07:49:25.249Z,50.8
2019-03-24T07:52:31.190Z,49.3
2019-03-24T07:55:37.066Z,48.2
2019-03-24T07:58:43.006Z,46.8
2019-03-24T08:01:51.526Z,45
2019-03-24T08:04:57.466Z,43.6
2019-03-24T08:08:03.447Z,42.3
2019-03-24T08:11:09.459Z,40.9
2019-03-24T08:14:15.551Z,39.6
2019-03-24T08:17:24.096Z,38.5
2019-03-24T08:20:29.982Z,37.3
2019-03-24T08:23:36.010Z,36.2
2019-03-24T08:26:41.972Z,34.9
2019-03-24T08:29:47.931Z,34
2019-03-24T08:32:54.061Z,32.9
2019-03-24T08:35:59.954Z,32
2019-03-24T08:39:06.015Z,31.1
2019-03-24T08:42:11.977Z,30.4
2019-03-24T08:45:17.871Z,29.5
2019-03-24T08:48:23.826Z,29
2019-03-24T08:51:29.753Z,28.3
2019-03-24T08:54:35.770Z,27.9
2019-03-24T08:57:41.678Z,27.4
2019-03-24T09:00:47.565Z,27
2019-03-24T09:03:53.490Z,26.6
2019-03-24T09:06:59.453Z,26.6
2019-03-24T09:10:05.412Z,26.5
2019-03-24T09:13:11.373Z,26.5
2019-03-24T09:16:17.259Z,26.1
2019-03-24T09:19:23.296Z,26.1
2019-03-24T09:22:29.357Z,26.1
2019-03-24T09:25:36.076Z,26.3
2019-03-24T09:28:42.195Z,26.3
2019-03-24T09:31:48.263Z,26.3
2019-03-24T09:34:54.219Z,26.3
2019-03-24T09:38:00.183Z,26.1
2019-03-24T09:41:06.148Z,26.3
2019-03-24T09:44:12.075Z,26.3
2019-03-24T09:47:18.060Z,26.3
2019-03-24T09:50:23.941Z,26.6
2019-03-24T09:53:29.874Z,27
2019-03-24T09:56:35.759Z,26.8
2019-03-24T09:59:41.696Z,26.8
2019-03-24T10:02:47.584Z,27
2019-03-24T10:05:53.511Z,27.4
2019-03-24T10:08:59.586Z,27.2
2019-03-24T10:12:05.554Z,27.4
2019-03-24T10:15:11.507Z,27.4
2019-03-24T10:18:17.571Z,27.5
2019-03-24T10:21:23.517Z,27.5
2019-03-24T10:24:29.592Z,27.5
2019-03-24T10:27:35.466Z,27.5
2019-03-24T10:30:41.397Z,27.5
2019-03-24T10:33:47.359Z,27.7
2019-03-24T10:36:53.235Z,27.7
2019-03-24T10:39:59.186Z,27.7
2019-03-24T10:43:05.259Z,28.1
2019-03-24T10:46:11.207Z,27.9
2019-03-24T10:49:27.859Z,27.5
2019-03-24T10:52:33.732Z,27.5
2019-03-24T10:55:39.745Z,28.3
2019-03-24T10:58:45.604Z,28.3
2019-03-24T11:01:51.561Z,28.3
2019-03-24T11:04:57.518Z,28.3
2019-03-24T11:08:03.483Z,28.6
2019-03-24T11:11:09.443Z,28.3
2019-03-24T11:14:15.396Z,27.9
2019-03-24T11:17:21.401Z,28.1
2019-03-24T11:20:27.359Z,28.6
2019-03-24T11:23:33.383Z,28.8
2019-03-24T11:26:39.335Z,28.8
2019-03-24T11:29:45.304Z,28.8
2019-03-24T11:32:51.270Z,28.6
2019-03-24T11:35:57.162Z,28.6
2019-03-24T11:39:03.082Z,28.8
2019-03-24T11:42:09.038Z,28.4
2019-03-24T11:45:14.995Z,28.4
2019-03-24T11:48:20.954Z,29
2019-03-24T11:51:26.822Z,28.6
2019-03-24T11:54:32.769Z,28.3
2019-03-24T11:57:38.731Z,28.3
2019-03-24T12:00:44.691Z,28.6
2019-03-24T12:03:50.565Z,29
2019-03-24T12:06:56.516Z,29
2019-03-24T12:10:02.722Z,29.3
2019-03-24T12:13:11.403Z,29.5
2019-03-24T12:16:17.367Z,29.5
2019-03-24T12:19:23.431Z,29
2019-03-24T12:22:29.308Z,28.6
2019-03-24T12:25:35.237Z,28.3
2019-03-24T12:28:41.197Z,28.3
2019-03-24T12:31:47.260Z,28.3
2019-03-24T12:34:53.131Z,27.9
2019-03-24T12:37:59.098Z,27.9
2019-03-24T12:41:05.140Z,27.7
2019-03-24T12:44:11.011Z,28.1
2019-03-24T12:47:16.960Z,28.1
2019-03-24T12:50:34.669Z,28.1
2019-03-24T12:53:40.654Z,27.7
2019-03-24T12:56:47.199Z,27.7
2019-03-24T12:59:53.191Z,27.4
2019-03-24T13:02:59.160Z,27.5
2019-03-24T13:06:05.030Z,27.2
2019-03-24T13:09:11.071Z,27
2019-03-24T13:12:17.015Z,27
2019-03-24T13:15:22.992Z,27
2019-03-24T13:18:28.997Z,27
2019-03-24T13:21:35.011Z,26.6
2019-03-24T13:24:40.916Z,26.5
2019-03-24T13:27:46.937Z,25.9
2019-03-24T13:30:52.991Z,25.6
2019-03-24T13:33:58.887Z,25.6
2019-03-24T13:37:07.276Z,25.6
2019-03-24T13:40:13.228Z,25.2
2019-03-24T13:43:19.188Z,24.5
2019-03-24T13:46:25.061Z,23.8
2019-03-24T13:49:31.010Z,23
2019-03-24T13:52:37.058Z,22.8
2019-03-24T13:55:42.929Z,23
2019-03-24T13:58:48.890Z,22.9
2019-03-24T14:01:54.850Z,22.4
2019-03-24T14:05:00.926Z,22.3
2019-03-24T14:08:06.881Z,140.4
2019-03-24T14:11:12.832Z,246.2
2019-03-24T14:14:18.703Z,266.4
2019-03-24T14:17:24.849Z,270.7
2019-03-24T14:20:42.405Z,272.2
2019-03-24T14:23:49.569Z,272.2
2019-03-24T14:26:55.564Z,273.6
2019-03-24T14:30:01.595Z,272.2
2019-03-24T14:33:07.449Z,272.2
2019-03-24T14:36:13.507Z,272.2
2019-03-24T14:39:22.550Z,272.2
2019-03-24T14:42:28.667Z,257.8
2019-03-24T14:45:34.568Z,270.7
2019-03-24T14:48:40.668Z,263.5
2019-03-24T14:51:46.542Z,270.7
2019-03-24T14:54:52.454Z,270.7
2019-03-24T14:57:58.488Z,270.7
2019-03-24T15:01:04.398Z,270.7
2019-03-24T15:04:10.342Z,270.7
2019-03-24T15:07:16.399Z,270.7
2019-03-24T15:10:22.450Z,269.3
2019-03-24T15:13:31.130Z,269.3
2019-03-24T15:16:37.137Z,267.8
2019-03-24T15:19:43.095Z,266.4
2019-03-24T15:22:49.058Z,266.4
2019-03-24T15:25:55.015Z,266.4
2019-03-24T15:29:01.057Z,265
2019-03-24T15:32:07.047Z,263.5
2019-03-24T15:35:13.000Z,263.5
2019-03-24T15:38:18.877Z,262.1
2019-03-24T15:41:24.822Z,263.5
2019-03-24T15:44:30.690Z,262.1
2019-03-24T15:47:36.668Z,262.1
2019-03-24T15:50:42.596Z,262.1
2019-03-24T15:53:48.470Z,262.1
2019-03-24T15:56:54.418Z,260.6
2019-03-24T16:00:00.447Z,260.6
2019-03-24T16:03:06.439Z,259.2
2019-03-24T16:06:12.312Z,259.2
2019-03-24T16:09:18.269Z,260.6
2019-03-24T16:12:24.219Z,259.2
2019-03-24T16:15:30.094Z,259.2
2019-03-24T16:18:36.142Z,257.8
2019-03-24T16:21:42.092Z,259.2
2019-03-24T16:24:48.054Z,256.3
2019-03-24T16:27:54.013Z,256.3
2019-03-24T16:30:59.975Z,254.9
2019-03-24T16:34:08.671Z,1.4
2019-03-24T16:37:14.571Z,1.2
2019-03-24T16:40:20.621Z,0.8
2019-03-24T16:43:26.683Z,0.6
2019-03-24T16:46:32.557Z,0.4
2019-03-24T16:49:38.615Z,0.3
2019-03-24T16:52:44.613Z,0.1
2019-03-24T16:55:50.559Z,0.1
2019-03-24T16:58:56.482Z,0
2019-03-24T17:02:05.523Z,0
2019-03-24T17:05:11.469Z,0
2019-03-24T17:08:17.445Z,0
2019-03-24T17:11:23.359Z,0
2019-03-24T17:14:29.360Z,0
2019-03-24T17:17:35.326Z,0
2019-03-24T17:20:41.371Z,0
2019-03-24T17:23:47.406Z,0
2019-03-24T17:26:53.395Z,0
2019-03-24T17:29:59.357Z,0
2019-03-24T17:33:05.317Z,0
2019-03-24T17:36:11.191Z,0
2019-03-24T17:39:17.151Z,0
2019-03-24T17:42:23.205Z,0
2019-03-24T17:45:29.269Z,0
2019-03-24T17:48:37.989Z,0
2019-03-24T17:51:44.065Z,0
2019-03-24T17:54:50.007Z,0
2019-03-24T17:57:55.974Z,0
2019-03-24T18:01:01.938Z,0
2019-03-24T18:04:07.986Z,0
2019-03-24T18:07:13.953Z,0
2019-03-24T18:10:22.677Z,0
2019-03-24T18:13:28.638Z,0
2019-03-24T18:16:34.700Z,0
2019-03-24T18:19:40.666Z,0
2019-03-24T18:22:46.616Z,0
2019-03-24T18:25:52.690Z,0
2019-03-24T18:28:58.646Z,0
2019-03-24T18:32:04.637Z,0
2019-03-24T18:35:10.668Z,0
2019-03-24T18:38:16.626Z,0
2019-03-24T18:41:22.581Z,0
2019-03-24T18:44:28.749Z,0
2019-03-24T18:47:34.624Z,0
2019-03-24T18:50:43.033Z,0
2019-03-24T18:53:51.808Z,0
2019-03-24T18:56:57.814Z,0
2019-03-24T19:00:03.689Z,0
2019-03-24T19:03:09.635Z,0
2019-03-24T19:06:15.577Z,0
2019-03-24T19:09:21.639Z,0
2019-03-24T19:12:27.616Z,0
2019-03-24T19:15:33.619Z,0
2019-03-24T19:18:42.293Z,0
2019-03-24T19:21:48.244Z,0
2019-03-24T19:24:56.978Z,0
2019-03-24T19:28:02.940Z,0
2019-03-24T19:31:09.408Z,0
2019-03-24T19:34:15.573Z,0
2019-03-24T19:37:21.540Z,0
2019-03-24T19:40:27.450Z,0
2019-03-24T19:43:33.358Z,0
2019-03-24T19:46:39.318Z,0
2019-03-24T19:49:45.274Z,0
2019-03-24T19:52:54.022Z,0
2019-03-24T19:56:00.062Z,0
2019-03-24T19:59:06.029Z,0
2019-03-24T20:02:11.980Z,0
2019-03-24T20:05:17.949Z,0
2019-03-24T20:08:23.908Z,0
2019-03-24T20:11:29.777Z,0
2019-03-24T20:14:35.825Z,0
2019-03-24T20:17:41.777Z,0
2019-03-24T20:20:47.737Z,0
2019-03-24T20:23:56.157Z,0
2019-03-24T20:27:02.211Z,0
2019-03-24T20:30:08.071Z,0
2019-03-24T20:33:14.149Z,0
2019-03-24T20:36:20.098Z,0
2019-03-24T20:39:26.052Z,0
2019-03-24T20:42:32.026Z,0
2019-03-24T20:45:38.093Z,0
2019-03-24T20:48:44.040Z,0
2019-03-24T20:51:50.006Z,0
2019-03-24T20:54:55.959Z,0
2019-03-24T20:58:01.921Z,0
2019-03-24T21:01:07.917Z,0
2019-03-24T21:04:13.828Z,0
2019-03-24T21:07:19.695Z,0
2019-03-24T21:10:27.091Z,0
2019-03-24T21:13:32.966Z,0
2019-03-24T21:16:38.917Z,0
2019-03-24T21:19:44.819Z,0
2019-03-24T21:22:50.780Z,0
2019-03-24T21:25:56.685Z,0
2019-03-24T21:29:02.560Z,0
2019-03-24T21:32:08.504Z,0
2019-03-24T21:35:14.378Z,0
2019-03-24T21:38:20.478Z,77
2019-03-24T21:41:26.486Z,0
2019-03-24T21:44:32.362Z,0
2019-03-24T21:47:38.303Z,0
2019-03-24T21:50:44.283Z,0
2019-03-24T21:53:50.189Z,0
2019-03-24T21:56:56.191Z,0
2019-03-24T22:00:02.150Z,0
2019-03-24T22:03:08.107Z,0
2019-03-24T22:06:14.065Z,0
2019-03-24T22:09:19.955Z,0
2019-03-24T22:12:25.887Z,0
2019-03-24T22:15:31.842Z,0
2019-03-24T22:18:37.731Z,0
2019-03-24T22:21:43.660Z,0
2019-03-24T22:24:49.724Z,0
2019-03-24T22:27:55.684Z,0
2019-03-24T22:31:04.578Z,0
2019-03-24T22:34:10.572Z,0
2019-03-24T22:37:19.198Z,0
2019-03-24T22:40:25.153Z,0
2019-03-24T22:43:31.065Z,0
2019-03-24T22:46:36.974Z,0
2019-03-24T22:49:42.931Z,0
2019-03-24T22:52:48.887Z,0
2019-03-24T22:55:54.744Z,0
2019-03-24T22:59:00.710Z,0
2019-03-24T23:02:06.581Z,0
2019-03-24T23:05:12.617Z,0
2019-03-24T23:08:18.542Z,0
2019-03-24T23:11:24.476Z,0
2019-03-24T23:14:30.407Z,0
2019-03-24T23:17:36.282Z,0
2019-03-24T23:20:42.287Z,0
2019-03-24T23:23:48.118Z,0
2019-03-24T23:26:54.043Z,0
2019-03-24T23:30:00.321Z,0
2019-03-24T23:33:06.370Z,0
2019-03-24T23:36:12.245Z,0
2019-03-24T23:39:18.188Z,0
2019-03-24T23:42:24.062Z,0
2019-03-24T23:45:30.058Z,0
2019-03-24T23:48:35.934Z,0
2019-03-24T23:51:42.027Z,0
2019-03-24T23:54:47.988Z,0
2019-03-24T23:57:53.958Z,0
